Time;durP1;ratioP1;P1;durP2;ratioP2;P2;SDS_P1;SDS_P2;PMS_P1;PMS_P2;Temp;Humidity;BMP_temperature;BMP_pressure;BME280_temperature;BME280_humidity;BME280_pressure;Samples;Min_cycle;Max_cycle;Signal;HPM_P1;HPM_P2
2021/06/08 00:01:40;;;;;;;11.60;8.15;;;;;;;12.84;73.13;96467.13;5095654;28;20131;-62
2021/06/08 00:04:05;;;;;;;11.82;7.18;;;;;;;12.85;73.25;96467.03;5095569;28;20462;-62
2021/06/08 00:06:31;;;;;;;7.70;6.82;;;;;;;12.82;73.35;96461.09;5094299;28;20059;-62
2021/06/08 00:08:57;;;;;;;11.63;10.05;;;;;;;12.78;73.80;96463.03;5095307;28;20024;-62
2021/06/08 00:11:22;;;;;;;8.48;6.85;;;;;;;12.78;73.12;96455.16;5095532;28;20039;-62
2021/06/08 00:13:49;;;;;;;11.32;8.48;;;;;;;12.73;73.18;96455.38;5094474;28;20022;-62
2021/06/08 00:16:15;;;;;;;8.18;7.38;;;;;;;12.70;73.52;96452.06;5095267;28;20031;-62
2021/06/08 00:18:40;;;;;;;13.35;8.95;;;;;;;12.67;73.58;96455.66;5095360;28;20028;-62
2021/06/08 00:21:07;;;;;;;16.55;7.85;;;;;;;12.72;74.00;96447.56;5095227;28;20138;-62
2021/06/08 00:23:32;;;;;;;8.52;7.65;;;;;;;12.78;74.09;96444.66;5095157;28;20381;-62
2021/06/08 00:25:58;;;;;;;16.05;9.05;;;;;;;12.80;73.81;96448.06;5095182;28;20016;-62
2021/06/08 00:28:24;;;;;;;8.95;8.05;;;;;;;12.71;73.61;96446.72;5095063;28;20020;-62
2021/06/08 00:30:49;;;;;;;12.80;9.63;;;;;;;12.63;74.25;96444.47;5095075;28;20062;-62
2021/06/08 00:33:15;;;;;;;8.25;7.45;;;;;;;12.58;74.38;96435.94;5094964;28;20474;-61
2021/06/08 00:35:41;;;;;;;8.52;7.72;;;;;;;12.64;74.25;96448.78;5094892;28;20465;-62
2021/06/08 00:38:06;;;;;;;10.57;7.53;;;;;;;12.62;74.13;96447.16;5094674;28;20079;-62
2021/06/08 00:40:32;;;;;;;14.30;9.40;;;;;;;12.65;74.33;96444.41;5094865;28;20500;-62
2021/06/08 00:42:57;;;;;;;12.55;9.68;;;;;;;12.54;74.51;96436.16;5094809;28;20027;-62
2021/06/08 00:45:23;;;;;;;13.00;8.98;;;;;;;12.53;74.93;96435.34;5094718;28;20098;-63
2021/06/08 00:47:50;;;;;;;13.27;8.65;;;;;;;12.57;74.95;96441.28;5094794;28;20031;-62
2021/06/08 00:50:16;;;;;;;8.23;7.43;;;;;;;12.59;73.55;96435.06;5094589;28;20466;-62
2021/06/08 00:52:42;;;;;;;10.27;7.75;;;;;;;12.55;74.15;96440.50;5094608;28;20031;-62
2021/06/08 00:55:10;;;;;;;8.45;7.65;;;;;;;12.51;74.00;96439.81;5094540;28;20021;-62
2021/06/08 00:57:37;;;;;;;12.98;8.23;;;;;;;12.46;74.44;96426.91;5094436;28;20050;-62
2021/06/08 01:00:07;;;;;;;10.60;9.60;;;;;;;12.40;75.47;96434.22;5094460;28;20019;-62
2021/06/08 01:02:34;;;;;;;9.98;8.98;;;;;;;12.47;75.19;96433.88;5094548;28;20500;-62
2021/06/08 01:05:04;;;;;;;10.18;7.50;;;;;;;12.51;74.89;96432.78;5094286;28;20032;-62
2021/06/08 01:07:32;;;;;;;10.95;8.38;;;;;;;12.58;74.64;96432.50;5094366;28;20024;-62
2021/06/08 01:09:58;;;;;;;11.82;8.80;;;;;;;12.55;74.50;96430.84;5094101;28;20077;-62
2021/06/08 01:12:25;;;;;;;14.95;8.75;;;;;;;12.56;75.24;96432.56;5094298;28;20028;-62
2021/06/08 01:14:51;;;;;;;11.73;10.07;;;;;;;12.57;74.94;96430.78;5094207;28;20100;-62
2021/06/08 01:17:17;;;;;;;9.68;8.45;;;;;;;12.60;75.07;96425.38;5094145;28;20106;-62
2021/06/08 01:19:43;;;;;;;10.57;9.48;;;;;;;12.59;75.24;96423.69;5094170;28;20077;-62
2021/06/08 01:22:09;;;;;;;11.30;9.85;;;;;;;12.57;75.18;96428.16;5094036;28;20016;-62
2021/06/08 01:24:34;;;;;;;11.55;10.35;;;;;;;12.65;75.50;96420.78;5093984;28;20028;-62
2021/06/08 01:27:01;;;;;;;13.80;8.93;;;;;;;12.72;74.50;96423.94;5093666;28;20021;-62
2021/06/08 01:29:29;;;;;;;16.55;11.38;;;;;;;12.72;74.10;96422.19;5093896;28;20020;-62
2021/06/08 01:32:00;;;;;;;15.85;11.45;;;;;;;12.75;74.19;96424.66;5094047;28;20038;-62
2021/06/08 01:34:26;;;;;;;14.70;10.90;;;;;;;12.79;74.00;96432.38;5093954;28;20028;-62
2021/06/08 01:36:52;;;;;;;20.52;12.52;;;;;;;12.80;74.02;96416.56;5093689;28;20024;-62
2021/06/08 01:39:18;;;;;;;10.77;9.38;;;;;;;12.78;73.97;96415.78;5093558;28;20512;-62
2021/06/08 01:41:44;;;;;;;13.65;10.48;;;;;;;12.76;73.96;96421.09;5093811;28;20016;-62
2021/06/08 01:44:13;;;;;;;14.93;12.43;;;;;;;12.75;74.40;96429.91;5093709;28;20367;-62
2021/06/08 01:46:39;;;;;;;17.23;10.45;;;;;;;12.79;74.00;96425.34;5093515;28;20032;-62
2021/06/08 01:49:04;;;;;;;10.25;9.25;;;;;;;12.75;74.07;96426.41;5093476;28;20024;-62
2021/06/08 01:51:48;;;;;;;10.95;8.32;;;;;;;12.71;74.63;96419.63;5093523;28;20069;-62
2021/06/08 01:54:40;;;;;;;10.48;8.65;;;;;;;12.71;74.86;96422.25;5093595;28;20102;-62
2021/06/08 01:57:24;;;;;;;8.85;7.95;;;;;;;12.72;74.83;96430.06;5093525;28;20550;-62
2021/06/08 02:00:06;;;;;;;9.73;8.70;;;;;;;12.71;74.50;96430.13;5093344;28;20060;-62
2021/06/08 02:02:46;;;;;;;11.25;10.05;;;;;;;12.72;75.15;96416.94;5093421;28;20028;-62
2021/06/08 02:05:18;;;;;;;9.25;8.35;;;;;;;12.75;74.98;96427.28;5093415;28;20016;-62
2021/06/08 02:08:05;;;;;;;9.73;8.10;;;;;;;12.75;74.74;96423.78;5093264;28;20032;-62
2021/06/08 02:10:36;;;;;;;9.90;7.93;;;;;;;12.73;74.52;96429.13;5093148;28;20024;-62
2021/06/08 02:13:31;;;;;;;8.35;7.43;;;;;;;12.74;74.12;96427.34;5093333;28;20035;-61
2021/06/08 02:16:22;;;;;;;11.18;9.90;;;;;;;12.70;74.29;96426.63;5075616;28;20032;-62
2021/06/08 02:18:49;;;;;;;;;;;;;;;12.64;74.84;96427.78;5093818;28;20028;-62
2021/06/08 02:21:18;;;;;;;9.32;8.35;;;;;;;12.62;75.29;96428.81;5093105;28;19911;-62
2021/06/08 02:26:33;;;;;;;10.77;9.68;;;;;;;12.64;75.07;96427.78;5093589;28;20493;-62
2021/06/08 02:29:02;;;;;;;13.45;10.68;;;;;;;12.67;75.03;96428.59;5093136;28;20111;-62
2021/06/08 02:31:28;;;;;;;8.90;8.10;;;;;;;12.69;75.45;96434.59;5093242;28;20027;-62
2021/06/08 02:33:55;;;;;;;10.50;9.15;;;;;;;12.72;74.92;96435.31;5093096;28;20024;-62
2021/06/08 02:36:22;;;;;;;10.50;8.20;;;;;;;12.73;74.72;96429.13;5093082;28;20473;-62
2021/06/08 02:38:49;;;;;;;10.68;9.68;;;;;;;12.75;75.04;96431.66;5095903;28;20071;-62
2021/06/08 02:41:16;;;;;;;10.00;9.00;;;;;;;12.77;75.07;96437.72;5097153;28;20193;-62
2021/06/08 02:43:44;;;;;;;10.60;9.50;;;;;;;12.81;75.65;96436.63;5097200;28;20078;-62
2021/06/08 02:46:11;;;;;;;8.90;8.00;;;;;;;12.86;75.01;96432.00;5097019;28;20428;-62
2021/06/08 02:48:39;;;;;;;14.55;11.38;;;;;;;12.88;75.07;96437.16;5096988;28;20401;-62
2021/06/08 02:51:05;;;;;;;10.43;9.25;;;;;;;12.85;75.56;96437.31;5096924;28;20027;-62
2021/06/08 02:53:32;;;;;;;11.95;10.75;;;;;;;12.92;75.48;96435.25;5096973;28;20385;-62
2021/06/08 02:55:58;;;;;;;13.65;8.02;;;;;;;12.98;74.44;96434.94;5096927;28;20023;-62
2021/06/08 02:58:25;;;;;;;9.52;8.57;;;;;;;12.98;74.67;96434.94;5096849;28;20016;-62
2021/06/08 03:00:51;;;;;;;10.07;9.05;;;;;;;13.00;75.06;96436.56;5096654;28;20024;-62
2021/06/08 03:03:22;;;;;;;9.80;8.90;;;;;;;13.02;75.04;96434.72;5096732;28;20066;-62
2021/06/08 03:06:03;;;;;;;13.95;8.68;;;;;;;13.13;75.11;96435.97;5096749;28;20055;-62
2021/06/08 03:08:34;;;;;;;10.43;9.38;;;;;;;13.17;75.04;96436.66;5096772;28;20024;-62
2021/06/08 03:11:03;;;;;;;9.90;8.90;;;;;;;13.24;75.11;96433.66;5096559;28;20071;-62
2021/06/08 03:13:32;;;;;;;9.73;8.70;;;;;;;13.32;75.25;96437.66;5096553;28;20023;-62
2021/06/08 03:16:00;;;;;;;10.23;9.23;;;;;;;13.37;75.75;96436.47;5096393;28;20028;-62
2021/06/08 03:18:29;;;;;;;10.63;8.90;;;;;;;13.49;76.17;96442.91;5096464;28;20024;-62
2021/06/08 03:21:01;;;;;;;10.27;7.50;;;;;;;13.53;74.99;96451.50;5096436;28;20078;-62
2021/06/08 03:23:33;;;;;;;8.07;7.38;;;;;;;13.67;74.31;96447.31;5095048;28;20114;-62
2021/06/08 03:26:01;;;;;;;8.63;7.22;;;;;;;13.84;74.09;96454.31;5096305;28;20505;-62
2021/06/08 03:28:29;;;;;;;12.15;8.52;;;;;;;14.07;73.83;96453.09;5096231;28;20127;-62
2021/06/08 03:30:56;;;;;;;8.15;7.10;;;;;;;14.42;73.10;96461.78;5096334;28;20389;-62
2021/06/08 03:33:24;;;;;;;6.63;5.57;;;;;;;14.81;72.09;96457.06;5096173;28;20031;-63
2021/06/08 03:35:51;;;;;;;6.05;5.47;;;;;;;15.21;71.05;96461.81;5095916;28;20028;-62
2021/06/08 03:38:18;;;;;;;7.03;5.55;;;;;;;15.64;69.73;96453.16;5095900;28;20123;-63
2021/06/08 03:40:44;;;;;;;6.68;5.47;;;;;;;16.04;69.09;96449.91;5096031;28;20050;-62
2021/06/08 03:43:10;;;;;;;7.22;5.63;;;;;;;16.45;67.97;96444.78;5095994;28;20020;-63
2021/06/08 03:45:36;;;;;;;6.43;5.88;;;;;;;16.84;67.09;96444.97;5096005;28;20056;-63
2021/06/08 03:48:02;;;;;;;6.53;5.15;;;;;;;17.25;66.35;96459.91;5095653;28;20051;-63
2021/06/08 03:50:29;;;;;;;9.18;4.97;;;;;;;17.64;64.69;96452.03;5095749;28;20028;-63
2021/06/08 03:52:56;;;;;;;6.85;4.65;;;;;;;18.03;64.13;96460.00;5095807;28;20055;-64
2021/06/08 03:55:24;;;;;;;6.82;4.70;;;;;;;18.35;63.32;96458.72;5095754;28;20020;-64
2021/06/08 03:57:54;;;;;;;4.80;3.70;;;;;;;18.66;62.20;96453.88;5095726;28;20046;-64
2021/06/08 04:00:25;;;;;;;4.60;4.20;;;;;;;18.97;61.43;96458.75;5095586;28;20106;-63
2021/06/08 04:02:51;;;;;;;8.38;5.47;;;;;;;19.29;61.60;96454.66;5095623;28;20032;-64
2021/06/08 04:05:17;;;;;;;5.85;5.05;;;;;;;19.52;61.45;96454.75;5095585;28;20031;-64
2021/06/08 04:07:46;;;;;;;6.43;5.07;;;;;;;19.89;60.56;96459.03;5095615;28;20462;-64
2021/06/08 04:10:18;;;;;;;7.18;5.25;;;;;;;20.10;59.96;96466.34;5095289;28;20058;-64
2021/06/08 04:12:44;;;;;;;9.23;4.70;;;;;;;20.15;60.12;96465.00;5095369;28;20416;-64
2021/06/08 04:15:11;;;;;;;6.20;4.25;;;;;;;20.19;58.63;96461.16;5095508;28;20176;-65
2021/06/08 04:17:38;;;;;;;8.88;4.70;;;;;;;20.33;59.17;96459.22;5095186;28;20477;-64
2021/06/08 04:20:05;;;;;;;4.80;4.28;;;;;;;20.53;58.99;96462.09;5095234;28;20107;-65
2021/06/08 04:22:33;;;;;;;5.05;4.65;;;;;;;20.77;58.60;96466.41;5095306;28;20069;-64
2021/06/08 04:25:00;;;;;;;5.00;4.60;;;;;;;21.01;58.17;96462.75;5095231;28;20093;-65
2021/06/08 04:27:29;;;;;;;4.80;4.40;;;;;;;21.34;57.85;96464.41;5095177;28;20081;-64
2021/06/08 04:29:55;;;;;;;7.38;4.60;;;;;;;21.60;56.82;96460.53;5095010;28;20052;-65
2021/06/08 04:32:21;;;;;;;4.88;4.47;;;;;;;21.88;55.39;96468.88;5095040;28;20101;-65
2021/06/08 04:34:55;;;;;;;6.05;4.53;;;;;;;22.02;55.29;96464.19;5094963;28;20054;-65
2021/06/08 04:37:22;;;;;;;5.15;4.65;;;;;;;22.17;55.38;96462.00;5094830;28;20505;-65
2021/06/08 04:39:48;;;;;;;6.20;5.25;;;;;;;22.27;55.37;96467.41;5094589;28;20036;-65
2021/06/08 04:42:16;;;;;;;5.53;5.03;;;;;;;22.37;55.05;96467.44;5094984;28;20016;-65
2021/06/08 04:44:52;;;;;;;5.38;4.88;;;;;;;22.56;55.02;96469.31;5094881;28;20020;-65
2021/06/08 04:47:22;;;;;;;8.55;5.72;;;;;;;22.83;55.09;96471.38;5094824;28;20409;-65
2021/06/08 04:49:52;;;;;;;5.55;4.95;;;;;;;23.04;54.81;96473.09;5094555;28;20378;-65
2021/06/08 04:52:18;;;;;;;7.13;5.20;;;;;;;23.36;54.56;96473.84;5094656;28;20082;-65
2021/06/08 04:54:44;;;;;;;5.13;4.72;;;;;;;23.72;53.49;96475.94;5094677;28;20024;-66
2021/06/08 04:57:12;;;;;;;5.80;4.25;;;;;;;23.85;52.62;96473.81;5094552;28;20032;-65
2021/06/08 05:00:17;;;;;;;4.85;4.45;;;;;;;23.90;52.46;96477.88;5094258;28;20051;-65
2021/06/08 05:02:55;;;;;;;5.47;4.40;;;;;;;24.17;52.06;96478.97;5052240;28;20037;-65
2021/06/08 05:05:24;;;;;;;4.70;4.30;;;;;;;24.38;51.08;96486.72;5052059;28;20029;-65
2021/06/08 05:08:04;;;;;;;6.10;4.72;;;;;;;24.68;50.86;96486.63;5076474;28;20474;-65
2021/06/08 05:10:33;;;;;;;5.45;4.30;;;;;;;24.91;50.79;96481.72;5094225;28;20031;-66
2021/06/08 05:13:01;;;;;;;5.28;4.88;;;;;;;25.06;49.98;96487.41;5094173;28;20029;-66
2021/06/08 05:15:28;;;;;;;4.28;3.88;;;;;;;25.28;50.11;96487.13;5094139;28;20031;-66
2021/06/08 05:17:55;;;;;;;6.07;4.53;;;;;;;25.52;49.30;96483.81;5094061;28;20099;-66
2021/06/08 05:20:22;;;;;;;7.55;3.80;;;;;;;25.76;49.56;96490.38;5093995;28;20030;-66
2021/06/08 05:22:50;;;;;;;4.47;4.10;;;;;;;25.91;48.83;96489.84;5094058;28;20027;-65
2021/06/08 05:25:17;;;;;;;7.43;4.30;;;;;;;26.04;48.96;96489.44;5094071;28;20032;-66
2021/06/08 05:27:44;;;;;;;4.22;3.83;;;;;;;26.16;48.99;96492.69;5093957;28;20020;-65
2021/06/08 05:30:10;;;;;;;5.20;4.18;;;;;;;26.41;48.62;96488.31;5093801;28;20035;-66
2021/06/08 05:32:39;;;;;;;5.07;4.68;;;;;;;26.67;48.50;96489.28;5093837;28;20028;-65
2021/06/08 05:35:08;;;;;;;5.93;4.03;;;;;;;26.81;48.73;96495.84;5093952;28;20470;-66
2021/06/08 05:37:44;;;;;;;4.78;4.28;;;;;;;26.88;47.98;96488.84;5093781;28;20063;-66
2021/06/08 05:40:11;;;;;;;4.50;4.10;;;;;;;26.97;47.62;96503.13;5093517;28;20044;-66
2021/06/08 05:42:36;;;;;;;5.20;4.70;;;;;;;27.18;46.96;96496.50;5092352;28;20485;-66
2021/06/08 05:45:04;;;;;;;4.57;4.10;;;;;;;27.27;47.13;96497.34;5093760;28;20020;-66
2021/06/08 05:47:30;;;;;;;6.70;4.30;;;;;;;27.44;46.77;96503.56;5093702;28;20024;-66
2021/06/08 05:49:56;;;;;;;4.55;4.15;;;;;;;27.62;47.30;96493.53;5093651;28;20108;-66
2021/06/08 05:52:22;;;;;;;5.57;4.57;;;;;;;27.85;47.06;96492.03;5093582;28;20414;-65
2021/06/08 05:54:52;;;;;;;4.95;4.30;;;;;;;27.84;45.99;96493.88;5093639;28;20024;-66
2021/06/08 05:57:18;;;;;;;6.13;4.40;;;;;;;27.95;45.89;96497.22;5093727;28;20024;-66
2021/06/08 05:59:43;;;;;;;8.43;4.45;;;;;;;28.06;46.39;96494.22;5093472;28;20260;-66
2021/06/08 06:02:13;;;;;;;4.18;3.78;;;;;;;28.24;46.14;96493.97;5093371;28;20048;-66
2021/06/08 06:04:43;;;;;;;6.78;4.07;;;;;;;28.42;45.40;96481.38;5093284;28;20035;-66
2021/06/08 06:07:09;;;;;;;5.83;4.20;;;;;;;28.61;44.78;96486.34;5093352;28;20030;-66
2021/06/08 06:09:35;;;;;;;6.72;4.38;;;;;;;28.80;44.32;96483.41;5093234;28;20265;-66
2021/06/08 06:12:01;;;;;;;7.50;4.38;;;;;;;29.03;45.03;96488.03;5093373;28;20024;-65
2021/06/08 06:14:29;;;;;;;6.68;4.13;;;;;;;29.19;43.33;96485.22;5093330;28;20560;-66
2021/06/08 06:16:56;;;;;;;4.53;4.13;;;;;;;28.99;42.50;96488.38;5093273;28;20031;-66
2021/06/08 06:19:24;;;;;;;6.00;4.65;;;;;;;28.51;44.81;96483.84;5093365;28;20024;-66
2021/06/08 06:21:52;;;;;;;6.22;4.78;;;;;;;28.36;42.03;96483.72;5093310;28;20111;-66
2021/06/08 06:24:18;;;;;;;5.18;4.15;;;;;;;28.41;44.14;96493.97;5093069;28;20023;-66
2021/06/08 06:26:45;;;;;;;5.47;4.70;;;;;;;28.54;43.61;96490.75;5093190;28;20020;-65
2021/06/08 06:29:13;;;;;;;5.43;4.20;;;;;;;28.38;42.66;96494.31;5092967;28;20382;-66
2021/06/08 06:31:43;;;;;;;5.90;4.25;;;;;;;27.84;41.81;96487.69;5093002;28;20496;-65
2021/06/08 06:34:11;;;;;;;7.47;4.60;;;;;;;27.79;42.76;96488.19;5093126;28;20024;-65
2021/06/08 06:36:37;;;;;;;6.22;4.75;;;;;;;27.64;44.11;96485.31;5093096;28;20161;-65
2021/06/08 06:39:06;;;;;;;7.38;4.20;;;;;;;27.54;41.63;96492.69;5092900;28;20043;-65
2021/06/08 06:41:38;;;;;;;4.60;4.20;;;;;;;27.54;42.72;96479.25;5093040;28;20032;-65
2021/06/08 06:44:04;;;;;;;6.53;4.63;;;;;;;27.72;43.80;96487.19;5093042;28;20381;-65
2021/06/08 06:46:31;;;;;;;5.15;4.65;;;;;;;27.92;43.66;96481.44;5092992;28;20541;-65
2021/06/08 06:48:57;;;;;;;9.63;4.60;;;;;;;27.69;44.06;96480.28;5093001;28;20077;-65
2021/06/08 06:51:24;;;;;;;6.18;4.63;;;;;;;27.82;44.24;96478.94;5092946;28;20028;-65
2021/06/08 06:53:51;;;;;;;6.22;4.43;;;;;;;27.81;43.48;96483.47;5092958;28;20031;-65
2021/06/08 06:56:22;;;;;;;4.57;4.20;;;;;;;27.66;43.48;96479.78;5092762;28;20470;-65
2021/06/08 06:58:48;;;;;;;6.22;4.32;;;;;;;27.47;42.89;96479.06;5092775;28;20024;-65
2021/06/08 07:01:14;;;;;;;5.00;4.30;;;;;;;27.53;43.24;96478.41;5092879;28;20078;-65
2021/06/08 07:03:42;;;;;;;5.07;4.45;;;;;;;27.32;44.75;96484.25;5092883;28;20024;-65
2021/06/08 07:06:10;;;;;;;15.50;4.38;;;;;;;27.69;42.75;96474.91;5092785;28;20091;-65
2021/06/08 07:08:38;;;;;;;6.95;4.63;;;;;;;28.03;43.25;96482.94;5092754;28;20024;-65
2021/06/08 07:11:05;;;;;;;5.18;4.68;;;;;;;27.95;42.68;96483.78;5092638;28;20028;-65
2021/06/08 07:13:32;;;;;;;4.97;3.90;;;;;;;28.13;41.85;96478.22;5092694;28;20022;-65
2021/06/08 07:15:58;;;;;;;4.85;4.03;;;;;;;27.66;40.80;96474.44;5092679;28;20099;-65
2021/06/08 07:18:24;;;;;;;6.15;4.38;;;;;;;26.93;43.86;96475.78;5092796;28;20123;-66
2021/06/08 07:20:50;;;;;;;4.93;4.43;;;;;;;27.11;46.47;96474.84;5092674;28;20522;-65
2021/06/08 07:23:20;;;;;;;5.35;4.00;;;;;;;27.10;42.55;96478.53;5093078;28;20101;-65
2021/06/08 07:25:46;;;;;;;7.30;4.38;;;;;;;27.35;42.66;96470.50;5096401;28;20024;-65
2021/06/08 07:28:12;;;;;;;4.50;4.10;;;;;;;27.61;43.31;96472.22;5096321;28;20048;-66
2021/06/08 07:30:42;;;;;;;4.18;3.80;;;;;;;27.59;41.50;96466.16;5096332;28;20485;-65
2021/06/08 07:33:27;;;;;;;5.60;3.83;;;;;;;27.96;40.27;96472.88;5096203;28;20114;-65
2021/06/08 07:35:54;;;;;;;6.68;4.13;;;;;;;28.26;40.29;96461.53;5096054;28;20115;-65
2021/06/08 07:38:48;;;;;;;5.28;3.75;;;;;;;28.37;41.95;96463.91;5095886;28;20082;-65
2021/06/08 07:41:23;;;;;;;7.45;4.07;;;;;;;28.24;39.79;96467.09;5095966;28;20032;-65
2021/06/08 07:44:14;;;;;;;4.82;3.85;;;;;;;28.17;42.10;96457.22;5084674;28;20116;-66
2021/06/08 07:46:42;;;;;;;4.55;3.75;;;;;;;27.70;40.87;96465.88;5096047;28;20028;-65
2021/06/08 07:49:10;;;;;;;4.68;3.90;;;;;;;27.04;42.52;96472.00;5095978;28;20481;-65
2021/06/08 07:51:40;;;;;;;4.85;4.35;;;;;;;26.66;44.24;96466.16;5095974;28;20428;-65
2021/06/08 07:54:08;;;;;;;7.32;4.13;;;;;;;26.74;46.14;96466.16;5095875;28;20028;-66
2021/06/08 07:56:36;;;;;;;4.45;4.05;;;;;;;27.16;44.46;96467.16;5095963;28;20031;-66
2021/06/08 07:59:03;;;;;;;6.32;4.22;;;;;;;27.57;45.25;96471.69;5095949;28;20048;-66
2021/06/08 08:01:29;;;;;;;8.02;4.80;;;;;;;27.63;43.39;96471.03;5095842;28;20023;-66
2021/06/08 08:03:56;;;;;;;7.47;5.38;;;;;;;27.37;44.47;96471.19;5094361;28;20426;-65
2021/06/08 08:06:23;;;;;;;15.18;6.40;;;;;;;27.22;46.18;96477.22;5095572;28;20086;-66
2021/06/08 08:08:49;;;;;;;9.45;6.30;;;;;;;27.08;44.54;96472.47;5095410;28;20078;-65
2021/06/08 08:11:18;;;;;;;14.27;6.53;;;;;;;27.25;45.08;96476.91;5095504;28;20024;-66
2021/06/08 08:13:48;;;;;;;8.02;5.97;;;;;;;27.06;45.28;96472.66;5095442;28;20074;-65
2021/06/08 08:16:15;;;;;;;6.95;6.00;;;;;;;27.19;45.33;96477.56;5095364;28;20099;-66
2021/06/08 08:18:43;;;;;;;8.27;5.38;;;;;;;27.47;47.74;96471.03;5095379;28;20024;-66
2021/06/08 08:21:12;;;;;;;12.40;6.00;;;;;;;27.85;47.75;96470.56;5095274;28;20016;-66
2021/06/08 08:23:39;;;;;;;8.93;6.20;;;;;;;28.21;46.20;96469.31;5095190;28;20028;-66
2021/06/08 08:26:07;;;;;;;9.82;5.57;;;;;;;28.69;43.85;96463.97;5095329;28;20012;-66
2021/06/08 08:28:37;;;;;;;8.15;5.05;;;;;;;28.89;43.13;96455.44;5093999;28;20111;-66
2021/06/08 08:31:06;;;;;;;7.35;5.60;;;;;;;28.81;42.05;96456.34;5095269;28;20035;-66
2021/06/08 08:33:33;;;;;;;7.53;5.78;;;;;;;28.79;42.50;96455.66;5095138;28;20485;-66
2021/06/08 08:36:00;;;;;;;5.13;4.63;;;;;;;28.88;42.74;96454.63;5093971;28;20351;-66
2021/06/08 08:38:26;;;;;;;10.60;5.22;;;;;;;28.75;41.58;96443.59;5094720;28;20050;-66
2021/06/08 08:40:52;;;;;;;5.97;4.97;;;;;;;28.46;43.23;96445.91;5094963;28;20107;-67
2021/06/08 08:43:18;;;;;;;8.07;5.85;;;;;;;28.48;43.00;96443.84;5094946;28;20103;-66
2021/06/08 08:45:44;;;;;;;7.10;4.70;;;;;;;28.15;41.87;96443.97;5094752;28;20032;-66
2021/06/08 08:48:11;;;;;;;6.90;4.63;;;;;;;28.13;43.53;96443.28;5094721;28;20157;-66
2021/06/08 08:50:36;;;;;;;5.15;4.65;;;;;;;28.05;43.07;96452.19;5094919;28;20024;-66
2021/06/08 08:53:04;;;;;;;4.65;3.92;;;;;;;28.09;42.61;96450.88;5093595;28;20027;-66
2021/06/08 08:55:34;;;;;;;6.05;4.25;;;;;;;28.25;43.37;96441.91;5094577;28;20047;-66
2021/06/08 08:58:02;;;;;;;5.82;4.72;;;;;;;28.07;40.21;96438.59;5094624;28;20505;-66
2021/06/08 09:00:30;;;;;;;5.47;4.50;;;;;;;27.95;43.00;96448.84;5094528;28;20043;-66
2021/06/08 09:03:01;;;;;;;10.27;4.40;;;;;;;27.59;42.63;96453.56;5094729;28;20039;-65
2021/06/08 09:05:27;;;;;;;5.50;4.40;;;;;;;27.35;43.24;96441.81;5094437;28;20024;-66
2021/06/08 09:07:53;;;;;;;7.45;3.72;;;;;;;27.39;45.05;96450.38;5094319;28;20035;-66
2021/06/08 09:10:22;;;;;;;5.13;4.63;;;;;;;27.54;43.35;96439.81;5094322;28;20036;-66
2021/06/08 09:12:49;;;;;;;11.18;4.35;;;;;;;27.80;42.17;96441.50;5094248;28;20016;-66
2021/06/08 09:15:15;;;;;;;6.20;4.10;;;;;;;27.97;43.70;96430.72;5094256;28;20467;-66
2021/06/08 09:17:41;;;;;;;5.10;4.60;;;;;;;28.26;41.27;96422.06;5094490;28;20069;-66
2021/06/08 09:20:08;;;;;;;7.07;4.97;;;;;;;28.40;42.19;96421.53;5094558;28;20107;-66
2021/06/08 09:22:47;;;;;;;4.30;3.88;;;;;;;28.70;40.41;96422.59;5094083;28;20463;-66
2021/06/08 09:25:12;;;;;;;5.57;4.22;;;;;;;28.98;40.81;96418.56;5094249;28;20420;-66
2021/06/08 09:27:38;;;;;;;4.68;4.10;;;;;;;29.14;41.67;96418.47;5094302;28;20035;-66
2021/06/08 09:30:14;;;;;;;7.30;4.53;;;;;;;29.59;41.80;96411.59;5093926;28;20478;-66
2021/06/08 09:32:39;;;;;;;10.38;3.92;;;;;;;29.57;39.76;96408.22;5094124;28;20027;-66
2021/06/08 09:35:05;;;;;;;6.85;4.00;;;;;;;28.96;40.26;96407.16;5094123;28;20024;-66
2021/06/08 09:37:40;;;;;;;4.20;3.80;;;;;;;28.33;39.74;96416.88;5094102;28;20020;-66
2021/06/08 09:40:39;;;;;;;5.70;3.72;;;;;;;27.54;41.39;96420.19;5093885;28;20413;-66
2021/06/08 09:43:12;;;;;;;4.45;3.80;;;;;;;26.89;41.58;96412.72;5085942;28;20065;-65
2021/06/08 09:45:52;;;;;;;5.80;3.25;;;;;;;26.58;41.39;96418.69;5093771;28;20028;-66
2021/06/08 09:48:17;;;;;;;3.80;3.20;;;;;;;26.52;44.36;96419.34;5093659;28;20118;-65
2021/06/08 09:50:49;;;;;;;6.20;3.65;;;;;;;26.26;44.58;96402.28;5093668;28;20050;-66
2021/06/08 09:53:28;;;;;;;5.65;2.92;;;;;;;26.33;44.12;96399.81;5093791;28;20462;-65
2021/06/08 09:56:06;;;;;;;2.67;2.47;;;;;;;26.33;41.01;96399.81;5093608;28;20035;-66
2021/06/08 09:58:35;;;;;;;3.90;3.33;;;;;;;26.15;42.94;96403.41;5093505;28;20036;-66
2021/06/08 10:01:08;;;;;;;6.37;3.50;;;;;;;26.28;42.14;96412.84;5093636;28;20025;-65
2021/06/08 10:03:49;;;;;;;2.95;2.75;;;;;;;26.27;39.43;96411.16;5093605;28;20497;-66
2021/06/08 10:06:34;;;;;;;5.15;3.22;;;;;;;26.43;41.83;96416.59;5093641;28;20112;-66
2021/06/08 10:09:04;;;;;;;4.03;3.00;;;;;;;26.28;41.80;96421.72;5093488;28;20035;-66
2021/06/08 10:11:35;;;;;;;4.00;3.43;;;;;;;25.85;42.03;96416.28;5093422;28;20093;-66
2021/06/08 10:14:18;;;;;;;3.92;3.63;;;;;;;25.79;44.88;96414.28;5093329;28;20028;-66
2021/06/08 10:16:45;;;;;;;3.67;3.38;;;;;;;25.54;44.40;96422.09;5093481;28;20047;-66
2021/06/08 10:19:23;;;;;;;3.42;3.17;;;;;;;24.46;48.07;96427.22;5093277;28;20019;-65
2021/06/08 10:21:49;;;;;;;5.63;3.65;;;;;;;23.40;51.10;96450.38;5093169;28;20046;-65
2021/06/08 10:24:16;;;;;;;4.35;3.15;;;;;;;22.32;52.28;96481.16;5093386;28;20435;-65
2021/06/08 10:26:51;;;;;;;4.38;1.92;;;;;;;21.24;49.85;96490.09;5093282;28;20017;-64
2021/06/08 10:29:19;;;;;;;4.93;2.35;;;;;;;20.28;54.03;96466.69;5093480;28;20062;-63
2021/06/08 10:31:46;;;;;;;4.65;2.72;;;;;;;19.34;57.55;96476.38;5093284;28;20032;-63
2021/06/08 10:34:12;;;;;;;9.73;3.28;;;;;;;18.64;62.24;96484.94;5093120;28;20050;-63
2021/06/08 10:36:41;;;;;;;12.50;3.38;;;;;;;18.26;62.44;96481.41;5093506;28;20024;-63
2021/06/08 10:39:09;;;;;;;12.00;4.57;;;;;;;17.66;65.88;96486.31;5093634;28;20044;-63
2021/06/08 16:13:30;;;;;;;7.50;4.28;;;;;;;20.75;67.78;96327.50;5166056;27;184243;-61
2021/06/08 16:15:56;;;;;;;6.50;4.10;;;;;;;20.71;67.23;96329.56;5133501;27;20121;-61
2021/06/08 16:18:21;;;;;;;5.93;3.92;;;;;;;20.64;66.84;96326.56;5151953;27;20021;-61
2021/06/08 16:20:47;;;;;;;10.00;4.90;;;;;;;20.62;67.78;96331.16;5151857;27;20019;-61
2021/06/08 16:23:12;;;;;;;7.70;3.65;;;;;;;20.58;66.19;96335.03;5151855;27;20536;-60
2021/06/08 16:25:38;;;;;;;9.82;3.95;;;;;;;20.55;66.40;96332.63;5151904;27;20551;-60
2021/06/08 16:28:04;;;;;;;4.72;4.32;;;;;;;20.52;67.52;96344.34;5152008;27;20472;-61
2021/06/08 16:30:29;;;;;;;4.28;3.97;;;;;;;20.48;68.16;96342.94;5151818;27;20098;-61
2021/06/08 16:32:55;;;;;;;4.88;4.15;;;;;;;20.42;68.83;96346.06;5151780;27;20031;-61
2021/06/08 16:35:21;;;;;;;7.50;4.55;;;;;;;20.40;69.34;96346.19;5151716;27;20068;-61
2021/06/08 16:37:47;;;;;;;4.72;4.22;;;;;;;20.43;70.09;96356.56;5151629;27;20383;-61
2021/06/08 16:40:13;;;;;;;5.75;4.43;;;;;;;20.39;70.11;96359.59;5151621;27;20529;-61
2021/06/08 16:42:39;;;;;;;5.93;4.60;;;;;;;20.31;69.36;96361.06;5151291;27;20494;-61
2021/06/08 16:45:05;;;;;;;4.07;3.78;;;;;;;20.27;68.45;96364.09;5151408;27;20019;-61
2021/06/08 16:47:32;;;;;;;7.95;4.53;;;;;;;20.17;69.28;96370.13;5151420;27;20048;-61
2021/06/08 16:49:58;;;;;;;8.90;4.05;;;;;;;20.10;69.16;96368.13;5151390;27;20059;-62
2021/06/08 16:55:09;;;;;;;11.30;4.20;;;;;;;20.03;68.70;96375.72;5151638;27;20546;-62
2021/06/08 16:57:35;;;;;;;8.90;3.90;;;;;;;19.98;69.08;96370.72;5151323;27;20019;-62
2021/06/08 17:00:00;;;;;;;4.82;4.07;;;;;;;19.92;69.52;96372.06;5151052;27;20019;-61
2021/06/08 17:02:26;;;;;;;11.32;3.92;;;;;;;19.80;69.58;96373.00;5151026;27;20030;-61
2021/06/08 17:04:52;;;;;;;9.02;3.92;;;;;;;19.68;69.96;96374.81;5151114;27;20576;-62
2021/06/08 17:07:18;;;;;;;8.73;3.55;;;;;;;19.60;69.83;96370.13;5150983;27;20015;-61
2021/06/08 17:09:45;;;;;;;9.15;3.72;;;;;;;19.52;70.64;96367.22;5150983;27;20023;-61
2021/06/08 17:12:11;;;;;;;13.65;4.30;;;;;;;19.48;70.05;96369.28;5150600;27;20039;-62
2021/06/08 17:14:37;;;;;;;6.72;4.30;;;;;;;19.42;69.85;96364.44;5136521;27;20460;-61
2021/06/08 17:17:03;;;;;;;6.75;5.13;;;;;;;19.24;69.96;96369.34;5137106;27;20102;-61